Weather observations for the past three days for
Chandler, Chandler Municipal Airport
Imperial (Metric)
Date Time (cdt) Wind (mph) Vis. (mi.) Weather Sky Cond. Temperature (ºF) Relative Humidity Wind Chill (°F) Heat Index (°F) Pressure Precipitation (in)
Air Dwpt 6 hour altimeter (in) sea level (mb) 1 hr 3 hr 6 hr
Max. Min.
08 00:55 S 7 10.00 Fair CLR 55.8 44.1 72 54.3 65% 29.95 0.0
08 00:35 S 8 10.00 Fair CLR 55.9 43.9 64% 29.95 0.0
08 00:10 S 9 10.00 Fair CLR 54.5 43.9 68% 29.95 0.0
07 23:50 S 6 10.00 Fair CLR 54.9 43.7 66% 29.95 0.0
07 23:30 S 7 10.00 Fair CLR 55 43.5 65% 29.95 0.0
07 23:10 S 6 10.00 Fair CLR 56.5 43.7 62% 29.95 0.0
07 22:30 S 7 10.00 Fair CLR 57.2 43 59% 29.96 0.0
07 22:10 S 6 10.00 Fair CLR 58.6 43 56% 29.96 0.0
07 21:50 S 8 10.00 Fair CLR 59.5 42.6 54% 29.95 0.0
07 21:30 S 7 10.00 Fair CLR 60.1 42.3 52% 29.95 0.0
07 21:10 S 7 10.00 Fair CLR 61.7 42.3 49% 29.95 0.0
07 20:55 S 7 10.00 Fair CLR 62.2 42.4 48% 29.95 0.0
07 20:35 S 7 7.00 Fair CLR 63.9 42.6 46% 29.94 0.0
07 20:15 S 8 10.00 Fair CLR 64.8 42.6 45% 29.94 0.0
07 19:50 S 8 10.00 Fair CLR 66.9 43.2 42% 29.94 0.0
07 19:30 S 6 7.00 Fair with Haze CLR 69.4 43 39% 29.93 0.0
07 19:10 S 7 10.00 Fair CLR 71.1 41 34% 29.93 0.0
07 18:50 S 8 10.00 Fair CLR 72.1 40.5 74.1 67.1 32% 29.93 0.0
07 18:30 S 7 10.00 Fair CLR 72.9 40.3 31% 29.94 0.0
07 18:10 W 7 10.00 Fair CLR 73.2 38.5 28% 29.94 0.0
07 17:50 S 6 10.00 Fair CLR 73.4 39.4 29% 29.95 0.0
07 17:30 SW 6 10.00 Fair CLR 73.6 37.9 27% 29.95 0.0
07 17:10 W 3 10.00 Fair CLR 73.2 39.6 30% 29.96 0.0
07 16:50 SW 5 10.00 Fair CLR 72.5 39.6 30% 29.96 0.0
07 16:35 SW 9 10.00 Fair CLR 72.9 40.6 31% 29.96 0.0
07 16:15 W 9 10.00 Fair CLR 73 41.2 32% 29.97 0.0
07 15:55 SW 12 10.00 Fair CLR 72.9 41.2 32% 29.98 0.0
07 15:30 W 10 10.00 Fair CLR 72 40.1 32% 29.99 0.0
07 15:10 SW 9 10.00 Fair CLR 71.4 39.4 31% 30 0.0
07 14:50 W 10 G 17 10.00 Fair CLR 70.7 40.1 33% 30.01 0.0
07 14:30 W 8 10.00 Fair CLR 70 41.4 36% 30.02 0.0
07 14:10 W 10 10.00 Fair CLR 70.5 41.5 35% 30.03 0.0
07 13:50 SW 10 10.00 Fair CLR 69.4 41.4 36% 30.04 0.0
07 13:30 SW 8 10.00 Fair CLR 68.7 41 37% 30.05 0.0
07 12:50 W 12 10.00 Fair CLR 66.9 40.5 67.3 41.5 38% 30.06 0.0
07 12:30 W 7 10.00 Fair CLR 65.7 39.6 38% 30.07 0.0
07 12:15 W 8 10.00 Fair CLR 67.1 41.2 39% 30.09 0.0
07 11:55 SW 6 G 18 10.00 Fair CLR 65.3 39.9 40% 30.1 0.0
07 11:35 SW 10 G 16 10.00 Fair CLR 64.9 39.4 39% 30.11 0.0
07 11:10 S 12 5.00 Fair with Haze CLR 63.9 39.9 42% 30.11 0.0
07 10:50 SW 9 10.00 Fair CLR 63.7 40.5 43% 30.11 0.0
07 10:30 SW 7 10.00 Fair CLR 61.7 40.8 46% 30.12 0.0
07 10:10 S 8 10.00 Fair CLR 61.2 41.7 49% 30.12 0.0
07 09:50 S 8 10.00 Fair CLR 59.5 40.6 50% 30.13 0.0
07 09:30 S 8 10.00 Fair CLR 58.5 40.5 51% 30.14 0.0
07 09:10 S 8 10.00 Fair CLR 56.7 41 56% 30.14 0.0
07 08:50 SW 6 10.00 Fair CLR 54.3 41.2 61% 30.14 0.0
07 08:30 SW 5 10.00 Fair CLR 52.3 43 71% 30.14 0.0
07 08:10 SW 3 10.00 Fair CLR 50 43.3 78% 30.14 0.0
07 07:55 SW 5 10.00 Fair CLR 48 42.1 80% 47 30.14 0.0
07 07:35 Calm 10.00 Fair CLR 46.4 40.5 80% 30.13 0.0
07 07:10 SW 3 10.00 Fair CLR 43.7 40.3 88% 30.12 0.0
07 06:50 W 3 10.00 Partly Cloudy SCT060 41.5 38.1 48 40.5 88% 30.12 0.0
07 06:10 NW 3 10.00 Partly Cloudy SCT065 41.5 37.8 86% 30.11 0.0
07 05:50 N 5 10.00 Partly Cloudy SCT065 41 37.4 87% 38 30.11 0.0
07 05:30 NW 7 10.00 Fair CLR 40.8 37 86% 37 30.11 0.0
07 05:10 NW 3 10.00 Fair CLR 42.3 38.1 85% 30.1 0.0
07 04:50 N 3 10.00 Fair CLR 42.4 38.5 86% 30.1 0.0
07 04:30 NW 5 10.00 Fair CLR 42.6 38.7 86% 40 30.11 0.0
07 04:10 N 3 10.00 Fair CLR 43.7 38.8 83% 30.09 0.0
07 03:50 N 5 10.00 Fair CLR 43 37.8 82% 41 30.09 0.0
07 02:50 NW 3 10.00 Fair CLR 44.6 39 81% 30.11 0.0
07 02:30 NW 3 10.00 Fair CLR 45.3 39 79% 30.1 0.0
07 01:50 NE 5 10.00 Fair CLR 45.7 39 78% 44 30.09 0.0
07 01:30 N 5 10.00 Fair CLR 46.6 39.6 77% 45 30.12 0.0
07 01:10 N 8 10.00 Fair CLR 46.2 38.7 75% 43 30.12 0.0
07 00:55 N 5 10.00 Fair CLR 47.7 39.2 62.8 47.3 73% 46 30.12 0.0
07 00:35 N 6 10.00 Fair CLR 48.2 39.2 71% 46 30.12 0.0
07 00:10 N 5 10.00 Fair CLR 48.4 40.1 73% 47 30.11 0.0
06 23:50 N 6 10.00 Fair CLR 48.6 39.2 70% 47 30.1 0.0
06 23:30 NE 5 10.00 Fair CLR 49.1 40.3 72% 48 30.09 0.0
06 23:10 N 5 10.00 Fair CLR 51.1 40.1 66% 30.1 0.0
06 22:50 N 5 10.00 Fair CLR 52 40.5 65% 30.1 0.0
06 22:30 N 5 10.00 Fair CLR 52.7 40.5 63% 30.09 0.0
06 22:10 NE 6 10.00 Fair CLR 54.5 40.3 59% 30.09 0.0
06 21:50 NE 6 10.00 Partly Cloudy SCT055 55.6 40.8 58% 30.08 0.0
06 21:30 N 6 10.00 Overcast OVC055 56.7 42.6 60% 30.07 0.0
06 21:10 N 6 10.00 Overcast OVC055 57.4 42.3 57% 30.06 0.0
06 20:55 N 5 10.00 Overcast OVC055 57.7 42.1 56% 30.06 0.0
06 20:35 N 6 10.00 Overcast OVC055 58.3 42.4 56% 30.05 0.0
06 20:15 N 6 10.00 Overcast OVC055 58.8 42.3 54% 30.05 0.0
06 19:50 NE 7 10.00 Overcast OVC055 59.9 41 50% 30.04 0.0
06 19:30 NE 6 10.00 Overcast OVC055 60.4 40.6 48% 30.04 0.0
06 19:10 NE 9 10.00 Overcast OVC055 62.2 40.5 45% 30.03 0.0
06 18:50 E 9 10.00 Mostly Cloudy BKN055 61.9 40.6 65.1 59.7 46% 30.02 0.0
06 18:30 NE 10 G 16 10.00 Partly Cloudy SCT055 63.9 41.2 44% 30.02 0.0
06 18:10 NE 8 10.00 Fair CLR 63.9 40.6 43% 30.02 0.0
06 17:50 N 9 10.00 Fair CLR 64 40.3 42% 30.01 0.0
06 17:30 N 9 G 20 10.00 Partly Cloudy SCT049 62.6 41 45% 30.01 0.0
06 17:10 N 10 G 16 10.00 Mostly Cloudy BKN049 64.8 41.5 43% 30 0.0
06 16:50 NE 8 10.00 Mostly Cloudy BKN049 62.6 41 45% 30 0.0
06 16:35 NE 9 10.00 Overcast OVC049 62.4 40.6 45% 30 0.0
06 16:15 NE 8 10.00 Mostly Cloudy BKN049 63 41.7 46% 30 0.0
06 15:55 NE 10 10.00 Overcast OVC047 61.7 41 47% 30.01 0.0
06 15:30 N 13 G 17 10.00 Overcast OVC047 61.7 42.8 50% 30.01 0.0
06 15:10 NE 10 7.00 Overcast OVC043 61.2 42.6 51% 30.02 0.0
06 14:50 NE 10 7.00 Overcast with Haze OVC043 61.3 42.1 49% 30.02 0.0
06 14:30 N 15 10.00 Overcast OVC045 61.7 42.1 49% 30.02 0.0
06 14:10 NE 8 G 18 10.00 Overcast OVC047 62.2 41.9 47% 30.03 0.0
06 13:50 NE 14 G 20 7.00 Mostly Cloudy BKN045 63 41 45% 30.03 0.0
06 13:10 E 14 G 20 10.00 Overcast OVC045 61.7 40.5 46% 30.05 0.0
06 12:50 E 14 G 20 10.00 Mostly Cloudy BKN043 62.1 41.2 63.1 47.1 46% 30.06 0.0
06 12:30 E 15 G 24 10.00 Partly Cloudy SCT043 60.8 40.8 48% 30.06 0.0
06 12:15 NE 17 G 22 7.00 Partly Cloudy SCT040 60.1 40.3 48% 30.05 0.0
06 11:35 NE 10 7.00 Partly Cloudy SCT038 57.4 39.6 52% 30.07 0.0
06 11:10 NE 12 10.00 Fair CLR 56.8 40.3 54% 30.07 0.0
06 10:50 NE 14 G 20 10.00 Fair CLR 57 40.3 54% 30.07 0.0
06 10:30 NE 14 10.00 Fair CLR 55.8 40.5 57% 30.07 0.0
06 10:10 NE 12 G 22 10.00 Fair CLR 53.2 40.1 61% 30.06 0.0
06 09:50 E 16 10.00 Fair CLR 53.4 40.3 61% 30.05 0.0
06 09:30 NE 15 G 25 10.00 Fair CLR 51.6 39.2 63% 30.04 0.0
06 09:10 NE 13 G 18 10.00 Partly Cloudy SCT024 SCT028 50.7 41.2 70% 30.04 0.0
06 08:50 NE 14 G 21 10.00 Partly Cloudy SCT022 50.2 40.6 70% 30.04 0.0
06 08:30 NE 10 G 17 7.00 Fair CLR 49.1 41.7 76% 45 30.04 0.0
06 08:10 N 9 G 17 10.00 Fair CLR 48.4 41.9 78% 45 30.04 0.0
06 07:55 NE 12 10.00 Fair CLR 47.8 41.9 80% 43 30.03 0.0
06 07:35 NE 10 G 23 10.00 Fair CLR 47.5 41.5 80% 43 30.03 0.0
06 07:15 N 14 10.00 Partly Cloudy SCT044 47.3 41 79% 42 30.02 0.0
06 06:50 N 10 10.00 Partly Cloudy SCT044 47.1 40.3 49.1 47.1 77% 43 30.01 0.0
06 06:30 N 13 G 18 10.00 Partly Cloudy SCT046 47.1 39.9 76% 42 30 0.0
06 06:10 N 10 10.00 Overcast OVC046 47.5 39.9 75% 43 30 0.0
06 05:50 N 10 10.00 Overcast OVC046 47.5 39.9 75% 43 30 0.0
06 05:30 N 9 10.00 Overcast OVC046 47.7 39.9 75% 44 30 0.0
06 05:10 N 9 10.00 Overcast OVC046 48 40.1 74% 44 30 0.0
06 04:50 N 9 10.00 Overcast OVC046 48.2 40.1 74% 45 29.99 0.0
06 04:30 N 9 10.00 Overcast OVC046 48.4 39.7 72% 45 29.98 0.0
06 04:10 N 10 10.00 Overcast OVC044 48.6 39.7 72% 45 29.97 0.0
06 03:50 N 10 10.00 Overcast OVC042 48.4 39.6 72% 44 29.97 0.0
06 03:30 N 10 10.00 Overcast OVC040 48.4 40.3 74% 44 29.95 0.0
06 03:10 N 8 10.00 Overcast OVC040 48.4 40.1 73% 45 29.93 0.0
06 02:50 N 9 10.00 Overcast OVC038 48.6 39.6 71% 45 29.92 0.0
06 02:10 N 9 10.00 Overcast OVC038 48.6 39.4 71% 45 29.92 0.0
06 01:50 N 9 10.00 Overcast OVC036 48.6 39.4 71% 45 29.93 0.0
06 01:30 N 7 10.00 Overcast OVC036 48.7 39.4 70% 46 29.93 0.0
06 01:10 N 9 10.00 Overcast OVC034 48.7 39.4 70% 45 29.92 0.0
06 00:55 N 9 10.00 Overcast OVC034 49.1 39.4 51.3 48.9 69% 46 29.92 0.0
06 00:35 NE 10 G 18 10.00 Overcast OVC034 49.5 37.6 64% 46 29.92 0.0
06 00:10 NE 12 10.00 Overcast OVC034 49.5 37.9 65% 45 29.92 0.0
05 23:30 NE 10 10.00 Overcast OVC032 49.6 37.6 63% 46 29.92 0.0
05 23:10 NE 13 G 17 10.00 Overcast OVC030 49.5 39.2 68% 45 29.93 0.0
05 22:50 NE 15 G 20 10.00 Overcast OVC028 49.6 40.5 71% 45 29.92 0.0
05 22:30 N 14 G 21 10.00 Overcast BKN024 OVC031 49.5 41.2 73% 45 29.91 0.0
05 22:10 N 14 G 20 10.00 Overcast OVC022 49.3 41.5 75% 45 29.91 0.0
05 21:50 N 9 G 23 10.00 Overcast OVC020 49.3 41.7 75% 46 29.91 0.0
05 21:30 N 9 10.00 Overcast OVC020 49.3 42.6 78% 46 29.9 0.0
05 21:10 N 10 G 18 10.00 Overcast OVC020 49.3 42.8 78% 45 29.89 0.0
05 20:55 N 12 10.00 Overcast OVC020 49.5 42.6 77% 45 29.88 0.0
05 20:35 N 10 10.00 Overcast OVC020 49.5 42.4 77% 46 29.88 0.0
05 20:15 N 10 10.00 Overcast OVC022 50 42.3 75% 46 29.86 0.0
05 19:50 N 14 G 22 10.00 Overcast OVC022 50.4 42.1 73% 29.84 0.0
05 19:30 N 14 G 20 10.00 Overcast OVC022 50.7 42.3 73% 29.84 0.0
05 19:10 N 13 G 21 10.00 Overcast OVC022 51.1 42.8 73% 29.83 0.0
05 18:50 NE 14 G 20 10.00 Overcast OVC024 51.3 42.6 55.8 51.3 72% 29.84 0.0
05 18:30 N 10 G 25 10.00 Overcast OVC024 51.8 42.3 70% 29.83 0.0
05 18:10 NE 12 G 21 10.00 Overcast OVC024 52.3 43.3 72% 29.82 0.0
05 17:50 NE 14 G 21 7.00 Overcast OVC022 52.5 43.7 72% 29.82 0.0
05 17:30 N 15 G 21 10.00 Overcast OVC022 52.7 43.9 72% 29.81 0.0
05 17:10 N 14 G 18 10.00 Overcast OVC022 53.1 44.2 72% 29.8 0.0
05 16:35 N 10 10.00 Overcast OVC022 53.8 44.6 71% 29.79 0.0
05 16:15 N 13 G 25 10.00 Overcast OVC020 54.3 44.8 70% 29.77 0.0
05 15:55 N 18 G 26 10.00 Overcast OVC020 53.8 45 72% 29.79 0.0
05 15:30 NE 16 G 21 10.00 Overcast OVC020 54.7 45.9 72% 29.78 0.0
05 15:10 NE 16 G 25 10.00 Overcast OVC018 55.6 46.8 72% 29.77 0.0
05 14:50 N 15 G 21 7.00 Overcast OVC016 54.9 47.3 76% 29.78 0.0
05 14:30 N 13 G 26 10.00 Overcast OVC014 54.7 48.2 79% 29.77 0.0
05 14:10 N 13 10.00 Overcast OVC014 55.4 49.1 79% 29.76 0.0
05 13:50 N 17 G 21 10.00 Overcast OVC014 55.6 49.5 80% 29.76 0.0
05 13:30 N 17 G 24 10.00 Overcast OVC012 55.6 49.5 80% 29.75 0.0
05 13:10 N 16 G 24 10.00 Overcast OVC012 55.4 49.8 82% 29.74 0.0
05 12:30 N 14 G 23 10.00 Overcast OVC012 55.6 50.7 84% 29.73 0.0
05 12:15 N 18 G 31 10.00 Overcast OVC012 55.6 50.7 84% 29.72 0.0
05 11:55 N 15 G 26 10.00 Overcast OVC012 57 51.6 82% 29.71 0.0
05 11:35 NE 20 G 29 10.00 Overcast OVC012 59 53.4 82% 29.68 0.0
05 11:10 N 18 G 29 10.00 Overcast OVC012 60.6 55 82% 29.67 0.0
05 10:50 N 14 G 23 10.00 Overcast OVC014 64.6 59.4 83% 29.66 0.0
05 10:30 N 14 G 18 10.00 Overcast BKN014 BKN024 OVC038 69.1 63.1 81% 29.64 0.0
05 10:10 E 7 10.00 Overcast OVC028 69.6 63.9 82% 29.63 0.0
05 09:50 E 12 10.00 Mostly Cloudy BKN030 70 63.9 81% 29.62 0.0
05 09:30 E 13 10.00 Partly Cloudy SCT030 69.4 63.5 82% 29.61 0.0
05 09:10 E 13 G 17 7.00 Mostly Cloudy BKN030 69.3 63.3 81% 29.61 0.0
05 08:50 E 13 10.00 Overcast OVC030 68.2 62.8 83% 29.61 0.0
05 08:30 E 13 10.00 Overcast OVC030 67.5 62.6 85% 29.61 0.0
05 08:10 E 10 10.00 Overcast OVC030 66.9 62.6 86% 29.61 0.0
05 07:55 E 10 10.00 Overcast OVC030 66.6 62.6 87% 29.6 0.0
05 07:35 E 10 10.00 Overcast OVC028 65.8 62.4 89% 29.61 0.0
05 07:15 E 8 10.00 Partly Cloudy SCT030 64.9 62.1 90% 29.6 0.0
05 06:50 E 8 10.00 Fair CLR 64.2 61.5 70.5 64.2 91% 29.59 0.0
05 06:30 NE 7 10.00 Fair CLR 64.2 61.3 90% 29.58 0.0
05 06:10 E 8 10.00 Fair CLR 64.4 61.5 90% 29.57 0.0
05 05:50 NE 8 10.00 Fair CLR 64.8 61.7 90% 29.56 0.0
05 05:30 E 7 10.00 Fair CLR 65.1 62.1 90% 29.54 0.0
05 05:10 E 7 10.00 Fair CLR 65.7 61.7 87% 29.53 0.0
05 04:50 SE 8 10.00 Fair CLR 66.2 62.1 87% 29.53 0.0
05 04:30 E 8 10.00 Fair CLR 66 61.9 87% 29.53 0.0
05 04:10 E 6 10.00 Fair CLR 67.1 62.1 84% 29.53 0.0
05 03:50 SE 7 10.00 Fair CLR 68.2 62.1 81% 29.54 0.0
05 03:30 SE 6 10.00 Fair CLR 68.2 62.1 81% 29.55 0.0
05 03:10 E 7 10.00 Fair CLR 69.1 62.1 78% 29.55 0.0
05 02:50 S 10 10.00 Fair CLR 70.2 62.2 76% 29.54 0.0
05 02:30 S 16 10.00 Fair CLR 70.2 62.2 76% 29.54 0.0
05 02:10 S 16 10.00 Fair CLR 70.2 62.1 76% 29.55 0.0
05 01:30 S 14 10.00 Fair CLR 70.2 61.9 75% 29.56 0.0
Date Time (cdt) Wind (mph) Vis. (mi.) Weather Sky Cond. Air Dwpt Max. Min. Relative Humidity Wind Chill (°F) Heat Index (°F) altimeter (in) sea level (mb) 1 hr 3 hr 6 hr
6 hour
Temperature (ºF) Pressure Precipitation (in)